KDHN/DHN METAR and TAF weather

Enter ICAO airport designator
Station Type Date Time Source
KDHN METAR 2021/09/27 05:53 UTC NOAA

KDHN 270553Z AUTO 09003KT 10SM SCT050 18/17 A3014 RMK AO2 SLP200 T01780167 10222 20178 50001 $


Station Type Date Time Source
KDHN Decoded METAR 2021/09/27 05:53 UTC NOAA

DOTHAN AIRPORT, AL, United States (KDHN) 31-19N 085-27W 113M
Sep 27, 2021 - 01:53 AM EDT / 2021.09.27 0553 UTC
Wind: from the E (090 degrees) at 3 MPH (3 KT):0
Visibility: 10 mile(s):0
Sky conditions: partly cloudy
Temperature: 64.0 F (17.8 C)
Dew Point: 62.1 F (16.7 C)
Relative Humidity: 93%
Pressure (altimeter): 30.14 in. Hg (1020 hPa)
Pressure tendency: 0.00 inches (0.1 hPa) higher than three hours ago
ob: KDHN 270553Z AUTO 09003KT 10SM SCT050 18/17 A3014 RMK AO2 SLP200 T01780167 10222 20178 50001
cycle: 6

Station Type Date Time Source
KDHN TAF 2021/09/27 06:22 UTC NOAA

TAF KDHN 270520Z 2706/2806 02005KT P6SM SKC
FM271800 12003KT P6SM SCT050

Example: see airport list